ěÝzenÝ letovÚho provozu ╚eskÚ republiky
Letiste: LKPR Aktualizace: 25.01.2022 10:00:29  UTC
 METAR LKPR 25.01. 10:00 ...
METAR LKPR 251000Z 24008KT 9999 FEW005 BKN011 OVC014 01/01 Q1031 NOSIG RMK REG QNH 1027=
 TAF LKPR 25.01. 05:00 ...
TAF LKPR 250500Z 2506/2612 24007KT 9999 BKN015      TEMPO 2506/2522 OVC013      PROB30 TEMPO 2506/2509 5000 BR OVC007      BECMG 2510/2512 33007KT      BECMG 2522/2600 25008KT SCT015=